Pagina principale
METAR-TAF:

METAR-TAF

Aeroporti :

Bergamo, Italia

Aeroporto di Bergamo-Orio al Serio

latitudine: 45-40N, longitudine: 009-42E, altezza: 238 m

Osservazione

Il bollettino è stato emesso 22 minuti fa, alle 07:50 UTC
Vento 3 kt da est, variando fra nord/nord-est e sud-est
Temperature 23°C
Umidità 50%
Pressione 1021 hPa
Visibilità 10 km o più
Nuvoloso ad un'altezza di 6000 ft

METAR: LIME 270750Z 08003KT 030V140 9999 BKN060 23/12 Q1021 NOSIG

Ora: 10:12 (08:12 UTC)

Previsione

Il bollettino è stato emesso 3 ore e 12 minuti fa, alle 05:00 UTC
Previsione valida dal 27 alle 06 UTC al 28 alle 06 UTC
Vento 7 kt da sud-est
Visibilità 10 km o più
Nubi sparse ad un'altezza di 5000 ft

TAF: LIME 270500Z 2706/2806 13007KT 9999 SCT050

Osservazioni e previsioni meteorologiche di più di 4000 aeroporti (messaggi METAR e TAF).

Le stazioni disponibili sono rappresentate dai dischi gialli e rossi sulla carta.

Puntare il mouse per vedere il nome della stazione.

Clicca sopra per visualizzare le osservazioni e previsioni meteorologiche.

Per cambiare la mappa : fare clic sui pulsanti verdi con una croce nera per ingrandire, il pulsante verde con un trattino per diminuire, o sulla freccia verde per le mappe adiacenti.


METAR-TAF: